sensor_id;sensor_type;location;lat;lon;timestamp;pressure;altitude;pressure_sealevel;temperature;humidity
22025;BME280;11176;51.448;6.650;2022-12-29T00:01:54;45498.16;;;-141.29;100.00
22025;BME280;11176;51.448;6.650;2022-12-29T00:04:21;45494.16;;;-141.29;100.00
22025;BME280;11176;51.448;6.650;2022-12-29T00:06:48;45486.16;;;-141.29;100.00
22025;BME280;11176;51.448;6.650;2022-12-29T00:09:16;45506.16;;;-141.29;100.00
22025;BME280;11176;51.448;6.650;2022-12-29T00:11:43;45482.16;;;-141.29;100.00
22025;BME280;11176;51.448;6.650;2022-12-29T00:14:10;45490.16;;;-141.29;100.00
22025;BME280;11176;51.448;6.650;2022-12-29T00:16:56;45510.16;;;-141.29;100.00
22025;BME280;11176;51.448;6.650;2022-12-29T00:19:23;45494.16;;;-141.29;100.00
22025;BME280;11176;51.448;6.650;2022-12-29T00:22:10;45516.13;;;-141.29;100.00
22025;BME280;11176;51.448;6.650;2022-12-29T00:24:56;45514.13;;;-141.29;100.00
22025;BME280;11176;51.448;6.650;2022-12-29T00:27:31;45502.16;;;-141.29;100.00
22025;BME280;11176;51.448;6.650;2022-12-29T00:30:20;45506.16;;;-141.29;100.00
22025;BME280;11176;51.448;6.650;2022-12-29T00:33:19;45490.16;;;-141.29;100.00
22025;BME280;11176;51.448;6.650;2022-12-29T00:38:35;45506.16;;;-141.29;100.00
22025;BME280;11176;51.448;6.650;2022-12-29T00:41:24;45490.16;;;-141.29;100.00
22025;BME280;11176;51.448;6.650;2022-12-29T00:44:12;45498.16;;;-141.29;100.00
22025;BME280;11176;51.448;6.650;2022-12-29T00:46:41;45474.16;;;-141.29;100.00
22025;BME280;11176;51.448;6.650;2022-12-29T00:49:09;45514.13;;;-141.29;100.00
22025;BME280;11176;51.448;6.650;2022-12-29T00:52:04;45520.13;;;-141.29;100.00
22025;BME280;11176;51.448;6.650;2022-12-29T00:54:33;45500.16;;;-141.29;100.00
22025;BME280;11176;51.448;6.650;2022-12-29T00:57:01;45494.16;;;-141.29;100.00
22025;BME280;11176;51.448;6.650;2022-12-29T00:59:28;45518.13;;;-141.29;100.00
22025;BME280;11176;51.448;6.650;2022-12-29T01:01:56;45486.16;;;-141.29;100.00
22025;BME280;11176;51.448;6.650;2022-12-29T01:04:24;45510.16;;;-141.29;100.00
22025;BME280;11176;51.448;6.650;2022-12-29T01:06:52;45502.16;;;-141.29;100.00
22025;BME280;11176;51.448;6.650;2022-12-29T01:09:19;45522.13;;;-141.29;100.00
22025;BME280;11176;51.448;6.650;2022-12-29T01:12:05;45512.16;;;-141.29;100.00
22025;BME280;11176;51.448;6.650;2022-12-29T01:14:33;45514.13;;;-141.29;100.00
22025;BME280;11176;51.448;6.650;2022-12-29T01:17:01;45510.16;;;-141.29;100.00
22025;BME280;11176;51.448;6.650;2022-12-29T01:19:28;45504.16;;;-141.29;100.00
22025;BME280;11176;51.448;6.650;2022-12-29T01:21:55;45496.16;;;-141.29;100.00
22025;BME280;11176;51.448;6.650;2022-12-29T01:24:21;45506.16;;;-141.29;100.00
22025;BME280;11176;51.448;6.650;2022-12-29T01:26:48;45516.13;;;-141.29;100.00
22025;BME280;11176;51.448;6.650;2022-12-29T01:29:16;45500.16;;;-141.29;100.00
22025;BME280;11176;51.448;6.650;2022-12-29T01:31:44;45484.16;;;-141.29;100.00
22025;BME280;11176;51.448;6.650;2022-12-29T01:34:11;45506.16;;;-141.29;100.00
22025;BME280;11176;51.448;6.650;2022-12-29T01:36:38;45490.16;;;-141.29;100.00
22025;BME280;11176;51.448;6.650;2022-12-29T01:39:05;45496.16;;;-141.29;100.00
22025;BME280;11176;51.448;6.650;2022-12-29T01:41:32;45502.16;;;-141.29;99.96
22025;BME280;11176;51.448;6.650;2022-12-29T01:44:00;45498.16;;;-141.29;100.00
22025;BME280;11176;51.448;6.650;2022-12-29T01:46:34;45494.16;;;-141.29;100.00
22025;BME280;11176;51.448;6.650;2022-12-29T01:51:31;45504.16;;;-141.29;99.04
22025;BME280;11176;51.448;6.650;2022-12-29T01:54:02;45492.16;;;-141.29;98.55
22025;BME280;11176;51.448;6.650;2022-12-29T01:56:32;45502.16;;;-141.29;97.59
22025;BME280;11176;51.448;6.650;2022-12-29T01:59:04;45502.16;;;-141.29;97.34
22025;BME280;11176;51.448;6.650;2022-12-29T02:01:32;45490.16;;;-141.29;97.48
22025;BME280;11176;51.448;6.650;2022-12-29T02:04:00;45492.16;;;-141.29;96.73
22025;BME280;11176;51.448;6.650;2022-12-29T02:06:38;45494.16;;;-141.29;95.71
22025;BME280;11176;51.448;6.650;2022-12-29T02:09:07;45492.16;;;-141.29;95.94
22025;BME280;11176;51.448;6.650;2022-12-29T02:11:34;45506.16;;;-141.29;95.62
22025;BME280;11176;51.448;6.650;2022-12-29T02:14:08;45482.16;;;-141.29;94.50
22025;BME280;11176;51.448;6.650;2022-12-29T02:17:16;45494.16;;;-141.29;93.83
22025;BME280;11176;51.448;6.650;2022-12-29T02:36:39;45482.16;;;-141.29;92.67
22025;BME280;11176;51.448;6.650;2022-12-29T02:39:34;45494.16;;;-141.29;92.01
22025;BME280;11176;51.448;6.650;2022-12-29T02:42:21;45472.16;;;-141.29;91.84
22025;BME280;11176;51.448;6.650;2022-12-29T02:44:59;45484.16;;;-141.29;92.01
22025;BME280;11176;51.448;6.650;2022-12-29T02:50:32;45510.16;;;-141.29;90.91
22025;BME280;11176;51.448;6.650;2022-12-29T02:53:02;45490.16;;;-141.29;90.45
22025;BME280;11176;51.448;6.650;2022-12-29T02:55:33;45486.16;;;-141.29;90.43
22025;BME280;11176;51.448;6.650;2022-12-29T02:58:15;45482.16;;;-141.29;90.38
22025;BME280;11176;51.448;6.650;2022-12-29T03:06:49;45474.16;;;-141.29;90.94
22025;BME280;11176;51.448;6.650;2022-12-29T03:09:35;45484.16;;;-141.29;91.47
22025;BME280;11176;51.448;6.650;2022-12-29T03:15:18;45474.16;;;-141.29;91.82
22025;BME280;11176;51.448;6.650;2022-12-29T03:18:21;45492.16;;;-141.29;91.30
22025;BME280;11176;51.448;6.650;2022-12-29T03:20:54;45486.16;;;-141.29;91.39
22025;BME280;11176;51.448;6.650;2022-12-29T03:23:24;45500.16;;;-141.29;91.58
22025;BME280;11176;51.448;6.650;2022-12-29T03:25:56;45478.16;;;-141.29;91.09
22025;BME280;11176;51.448;6.650;2022-12-29T03:28:29;45484.16;;;-141.29;91.27
22025;BME280;11176;51.448;6.650;2022-12-29T03:30:57;45494.16;;;-141.29;90.64
22025;BME280;11176;51.448;6.650;2022-12-29T03:33:28;45486.16;;;-141.29;90.45
22025;BME280;11176;51.448;6.650;2022-12-29T03:36:03;45492.16;;;-141.29;90.11
22025;BME280;11176;51.448;6.650;2022-12-29T03:38:35;45466.19;;;-141.29;89.62
22025;BME280;11176;51.448;6.650;2022-12-29T03:41:07;45478.16;;;-141.29;90.11
22025;BME280;11176;51.448;6.650;2022-12-29T03:43:35;45498.16;;;-141.29;90.40
22025;BME280;11176;51.448;6.650;2022-12-29T03:46:02;45482.16;;;-141.29;93.09
22025;BME280;11176;51.448;6.650;2022-12-29T03:48:29;45474.16;;;-141.29;94.71
22025;BME280;11176;51.448;6.650;2022-12-29T03:50:55;45494.16;;;-141.29;94.48
22025;BME280;11176;51.448;6.650;2022-12-29T03:53:22;45486.16;;;-141.29;94.05
22025;BME280;11176;51.448;6.650;2022-12-29T03:55:49;45488.16;;;-141.29;94.25
22025;BME280;11176;51.448;6.650;2022-12-29T03:58:15;45490.16;;;-141.29;93.90
22025;BME280;11176;51.448;6.650;2022-12-29T04:00:54;45490.16;;;-141.29;93.59
22025;BME280;11176;51.448;6.650;2022-12-29T04:03:21;45482.16;;;-141.29;95.58
22025;BME280;11176;51.448;6.650;2022-12-29T04:05:49;45484.16;;;-141.29;96.60
22025;BME280;11176;51.448;6.650;2022-12-29T04:08:15;45488.16;;;-141.29;97.38
22025;BME280;11176;51.448;6.650;2022-12-29T04:10:42;45466.19;;;-141.29;97.64
22025;BME280;11176;51.448;6.650;2022-12-29T04:13:09;45498.16;;;-141.29;97.66
22025;BME280;11176;51.448;6.650;2022-12-29T04:15:35;45494.16;;;-141.29;97.61
22025;BME280;11176;51.448;6.650;2022-12-29T04:18:02;45494.16;;;-141.29;97.83
22025;BME280;11176;51.448;6.650;2022-12-29T04:20:28;45490.16;;;-141.29;97.63
22025;BME280;11176;51.448;6.650;2022-12-29T04:23:15;45470.19;;;-141.29;97.18
22025;BME280;11176;51.448;6.650;2022-12-29T04:25:45;45498.16;;;-141.29;96.33
22025;BME280;11176;51.448;6.650;2022-12-29T04:28:15;45498.16;;;-141.29;95.31
22025;BME280;11176;51.448;6.650;2022-12-29T04:31:01;45490.16;;;-141.29;94.03
22025;BME280;11176;51.448;6.650;2022-12-29T04:33:33;45494.16;;;-141.29;92.45
22025;BME280;11176;51.448;6.650;2022-12-29T04:36:00;45476.16;;;-141.29;92.41
22025;BME280;11176;51.448;6.650;2022-12-29T04:38:27;45486.16;;;-141.29;92.59
22025;BME280;11176;51.448;6.650;2022-12-29T04:40:54;45502.16;;;-141.29;91.44
22025;BME280;11176;51.448;6.650;2022-12-29T04:43:22;45474.16;;;-141.29;91.62
22025;BME280;11176;51.448;6.650;2022-12-29T04:46:01;45482.16;;;-141.29;90.89
22025;BME280;11176;51.448;6.650;2022-12-29T04:48:35;45482.16;;;-141.29;90.81
22025;BME280;11176;51.448;6.650;2022-12-29T04:51:20;45492.16;;;-141.29;90.45
22025;BME280;11176;51.448;6.650;2022-12-29T04:53:48;45480.16;;;-141.29;89.60
22025;BME280;11176;51.448;6.650;2022-12-29T04:56:15;45486.16;;;-141.29;89.49
22025;BME280;11176;51.448;6.650;2022-12-29T04:58:41;45486.16;;;-141.29;88.52
22025;BME280;11176;51.448;6.650;2022-12-29T05:01:08;45482.16;;;-141.29;88.38
22025;BME280;11176;51.448;6.650;2022-12-29T05:03:34;45474.16;;;-141.29;88.81
22025;BME280;11176;51.448;6.650;2022-12-29T05:06:01;45490.16;;;-141.29;89.03
22025;BME280;11176;51.448;6.650;2022-12-29T05:08:28;45482.16;;;-141.29;90.23
22025;BME280;11176;51.448;6.650;2022-12-29T05:10:57;45490.16;;;-141.29;92.80
22025;BME280;11176;51.448;6.650;2022-12-29T05:13:25;45494.16;;;-141.29;95.56
22025;BME280;11176;51.448;6.650;2022-12-29T05:15:52;45482.16;;;-141.29;98.95
22025;BME280;11176;51.448;6.650;2022-12-29T05:18:21;45502.16;;;-141.29;100.00
22025;BME280;11176;51.448;6.650;2022-12-29T05:20:49;45502.16;;;-141.29;100.00
22025;BME280;11176;51.448;6.650;2022-12-29T05:23:17;45514.13;;;-141.29;100.00
22025;BME280;11176;51.448;6.650;2022-12-29T05:25:48;45498.16;;;-141.29;100.00
22025;BME280;11176;51.448;6.650;2022-12-29T05:28:35;45496.16;;;-141.29;100.00
22025;BME280;11176;51.448;6.650;2022-12-29T05:31:10;45500.16;;;-141.29;100.00
22025;BME280;11176;51.448;6.650;2022-12-29T05:33:37;45500.16;;;-141.29;100.00
22025;BME280;11176;51.448;6.650;2022-12-29T05:36:06;45512.16;;;-141.29;95.75
22025;BME280;11176;51.448;6.650;2022-12-29T05:38:35;45508.16;;;-141.29;93.61
22025;BME280;11176;51.448;6.650;2022-12-29T05:41:02;45518.13;;;-141.29;93.80
22025;BME280;11176;51.448;6.650;2022-12-29T05:43:47;45514.13;;;-141.29;89.80
22025;BME280;11176;51.448;6.650;2022-12-29T05:46:28;45516.13;;;-141.29;88.42
22025;BME280;11176;51.448;6.650;2022-12-29T05:49:30;45506.16;;;-141.29;87.89
22025;BME280;11176;51.448;6.650;2022-12-29T05:52:08;45490.16;;;-141.29;88.70
22025;BME280;11176;51.448;6.650;2022-12-29T05:54:34;45510.16;;;-141.29;89.43
22025;BME280;11176;51.448;6.650;2022-12-29T05:57:06;45510.16;;;-141.29;89.24
22025;BME280;11176;51.448;6.650;2022-12-29T05:59:33;45474.16;;;-141.29;89.78
22025;BME280;11176;51.448;6.650;2022-12-29T06:02:01;45498.16;;;-141.29;90.37
22025;BME280;11176;51.448;6.650;2022-12-29T06:04:27;45510.16;;;-141.29;90.89
22025;BME280;11176;51.448;6.650;2022-12-29T06:06:54;45506.16;;;-141.29;90.88
22025;BME280;11176;51.448;6.650;2022-12-29T06:09:30;45506.16;;;-141.29;90.80
22025;BME280;11176;51.448;6.650;2022-12-29T06:11:56;45510.16;;;-141.29;91.41
22025;BME280;11176;51.448;6.650;2022-12-29T06:14:24;45510.16;;;-141.29;91.78
22025;BME280;11176;51.448;6.650;2022-12-29T06:16:50;45510.16;;;-141.29;92.21
22025;BME280;11176;51.448;6.650;2022-12-29T06:19:17;45502.16;;;-141.29;92.23
22025;BME280;11176;51.448;6.650;2022-12-29T06:21:43;45482.16;;;-141.29;92.85
22025;BME280;11176;51.448;6.650;2022-12-29T06:24:10;45490.16;;;-141.29;93.03
22025;BME280;11176;51.448;6.650;2022-12-29T06:26:37;45514.13;;;-141.29;93.79
22025;BME280;11176;51.448;6.650;2022-12-29T06:29:03;45500.16;;;-141.29;93.41
22025;BME280;11176;51.448;6.650;2022-12-29T06:31:31;45518.13;;;-141.29;93.27
22025;BME280;11176;51.448;6.650;2022-12-29T06:33:58;45498.16;;;-141.29;93.00
22025;BME280;11176;51.448;6.650;2022-12-29T06:36:33;45506.16;;;-141.29;92.75
22025;BME280;11176;51.448;6.650;2022-12-29T06:38:59;45482.16;;;-141.29;92.21
22025;BME280;11176;51.448;6.650;2022-12-29T06:41:26;45502.16;;;-141.29;91.78
22025;BME280;11176;51.448;6.650;2022-12-29T06:44:24;45508.16;;;-141.29;91.80
22025;BME280;11176;51.448;6.650;2022-12-29T06:47:00;45494.16;;;-141.29;91.91
22025;BME280;11176;51.448;6.650;2022-12-29T06:49:26;45514.13;;;-141.29;91.96
22025;BME280;11176;51.448;6.650;2022-12-29T06:51:53;45498.16;;;-141.29;91.90
22025;BME280;11176;51.448;6.650;2022-12-29T06:54:19;45518.13;;;-141.29;91.62
22025;BME280;11176;51.448;6.650;2022-12-29T06:56:45;45506.16;;;-141.29;91.61
22025;BME280;11176;51.448;6.650;2022-12-29T06:59:12;45514.13;;;-141.29;91.14
22025;BME280;11176;51.448;6.650;2022-12-29T07:01:39;45510.16;;;-141.29;91.47
22025;BME280;11176;51.448;6.650;2022-12-29T07:04:06;45512.16;;;-141.29;91.48
22025;BME280;11176;51.448;6.650;2022-12-29T07:06:32;45520.13;;;-141.29;91.25
22025;BME280;11176;51.448;6.650;2022-12-29T07:08:58;45494.16;;;-141.29;90.85
22025;BME280;11176;51.448;6.650;2022-12-29T07:11:25;45486.16;;;-141.29;90.51
22025;BME280;11176;51.448;6.650;2022-12-29T07:13:51;45506.16;;;-141.29;90.89
22025;BME280;11176;51.448;6.650;2022-12-29T07:16:18;45508.16;;;-141.29;89.90
22025;BME280;11176;51.448;6.650;2022-12-29T07:18:45;45506.16;;;-141.29;89.93
22025;BME280;11176;51.448;6.650;2022-12-29T07:21:11;45506.16;;;-141.29;88.82
22025;BME280;11176;51.448;6.650;2022-12-29T07:23:38;45502.16;;;-141.29;88.42
22025;BME280;11176;51.448;6.650;2022-12-29T07:26:06;45510.16;;;-141.29;88.76
22025;BME280;11176;51.448;6.650;2022-12-29T07:28:36;45510.16;;;-141.29;88.27
22025;BME280;11176;51.448;6.650;2022-12-29T07:31:05;45514.13;;;-141.29;87.95
22025;BME280;11176;51.448;6.650;2022-12-29T07:33:32;45504.16;;;-141.29;87.67
22025;BME280;11176;51.448;6.650;2022-12-29T07:35:59;45510.16;;;-141.29;87.52
22025;BME280;11176;51.448;6.650;2022-12-29T07:38:26;45482.16;;;-141.29;86.78
22025;BME280;11176;51.448;6.650;2022-12-29T07:40:56;45494.16;;;-141.29;87.14
22025;BME280;11176;51.448;6.650;2022-12-29T07:43:23;45514.13;;;-141.29;85.93
22025;BME280;11176;51.448;6.650;2022-12-29T07:46:10;45490.16;;;-141.29;85.28
22025;BME280;11176;51.448;6.650;2022-12-29T07:48:56;45514.13;;;-141.29;84.46
22025;BME280;11176;51.448;6.650;2022-12-29T07:51:23;45522.13;;;-141.29;82.50
22025;BME280;11176;51.448;6.650;2022-12-29T07:53:49;45500.16;;;-141.29;81.84
22025;BME280;11176;51.448;6.650;2022-12-29T07:56:15;45506.16;;;-141.29;81.66
22025;BME280;11176;51.448;6.650;2022-12-29T07:58:42;45514.13;;;-141.29;81.82
22025;BME280;11176;51.448;6.650;2022-12-29T08:01:08;45498.16;;;-141.29;81.92
22025;BME280;11176;51.448;6.650;2022-12-29T08:03:35;45506.16;;;-141.29;81.60
22025;BME280;11176;51.448;6.650;2022-12-29T08:06:02;45474.16;;;-141.29;82.33
22025;BME280;11176;51.448;6.650;2022-12-29T08:08:29;45508.16;;;-141.29;82.18
22025;BME280;11176;51.448;6.650;2022-12-29T08:10:55;45510.16;;;-141.29;81.81
22025;BME280;11176;51.448;6.650;2022-12-29T08:13:22;45496.16;;;-141.29;81.89
22025;BME280;11176;51.448;6.650;2022-12-29T08:15:49;45514.13;;;-141.29;81.78
22025;BME280;11176;51.448;6.650;2022-12-29T08:18:15;45506.16;;;-141.29;81.89
22025;BME280;11176;51.448;6.650;2022-12-29T08:20:42;45490.16;;;-141.29;81.85
22025;BME280;11176;51.448;6.650;2022-12-29T08:23:08;45500.16;;;-141.29;82.48
22025;BME280;11176;51.448;6.650;2022-12-29T08:25:34;45506.16;;;-141.29;81.58
22025;BME280;11176;51.448;6.650;2022-12-29T08:28:01;45482.16;;;-141.29;82.76
22025;BME280;11176;51.448;6.650;2022-12-29T08:30:27;45500.16;;;-141.29;83.05
22025;BME280;11176;51.448;6.650;2022-12-29T08:32:54;45514.13;;;-141.29;82.90
22025;BME280;11176;51.448;6.650;2022-12-29T08:35:21;45498.16;;;-141.29;83.18
22025;BME280;11176;51.448;6.650;2022-12-29T08:37:47;45482.16;;;-141.29;83.62
22025;BME280;11176;51.448;6.650;2022-12-29T08:40:14;45508.16;;;-141.29;83.21
22025;BME280;11176;51.448;6.650;2022-12-29T08:42:40;45518.13;;;-141.29;83.17
22025;BME280;11176;51.448;6.650;2022-12-29T08:45:07;45512.16;;;-141.29;82.78
22025;BME280;11176;51.448;6.650;2022-12-29T08:47:34;45504.16;;;-141.29;83.26
22025;BME280;11176;51.448;6.650;2022-12-29T08:50:01;45524.13;;;-141.29;83.49
22025;BME280;11176;51.448;6.650;2022-12-29T08:52:28;45518.13;;;-141.29;82.51
22025;BME280;11176;51.448;6.650;2022-12-29T08:54:54;45502.16;;;-141.29;81.35
22025;BME280;11176;51.448;6.650;2022-12-29T08:57:21;45502.16;;;-141.29;81.92
22025;BME280;11176;51.448;6.650;2022-12-29T09:00:03;45506.16;;;-141.29;81.70
22025;BME280;11176;51.448;6.650;2022-12-29T09:02:29;45490.16;;;-141.29;81.14
22025;BME280;11176;51.448;6.650;2022-12-29T09:04:56;45518.13;;;-141.29;80.79
22025;BME280;11176;51.448;6.650;2022-12-29T09:07:23;45506.16;;;-141.29;80.94
22025;BME280;11176;51.448;6.650;2022-12-29T09:09:50;45500.16;;;-141.29;80.79
22025;BME280;11176;51.448;6.650;2022-12-29T09:12:17;45490.16;;;-141.29;80.86
22025;BME280;11176;51.448;6.650;2022-12-29T09:14:46;45506.16;;;-141.29;81.39
22025;BME280;11176;51.448;6.650;2022-12-29T09:17:12;45486.16;;;-141.29;80.98
22025;BME280;11176;51.448;6.650;2022-12-29T09:19:57;45502.16;;;-141.29;81.39
22025;BME280;11176;51.448;6.650;2022-12-29T09:22:24;45510.16;;;-141.29;80.89
22025;BME280;11176;51.448;6.650;2022-12-29T09:24:51;45508.16;;;-141.29;81.40
22025;BME280;11176;51.448;6.650;2022-12-29T09:27:17;45502.16;;;-141.29;81.01
22025;BME280;11176;51.448;6.650;2022-12-29T09:29:44;45514.13;;;-141.29;81.22
22025;BME280;11176;51.448;6.650;2022-12-29T09:32:10;45512.16;;;-141.29;80.56
22025;BME280;11176;51.448;6.650;2022-12-29T09:34:43;45478.16;;;-141.29;80.41
22025;BME280;11176;51.448;6.650;2022-12-29T09:37:10;45494.16;;;-141.29;80.36
22025;BME280;11176;51.448;6.650;2022-12-29T09:39:36;45502.16;;;-141.29;80.19
22025;BME280;11176;51.448;6.650;2022-12-29T09:42:06;45490.16;;;-141.29;80.12
22025;BME280;11176;51.448;6.650;2022-12-29T09:47:13;45506.16;;;-141.29;79.30
22025;BME280;11176;51.448;6.650;2022-12-29T09:49:44;45490.16;;;-141.29;79.47
22025;BME280;11176;51.448;6.650;2022-12-29T09:52:19;45486.16;;;-141.29;77.66
22025;BME280;11176;51.448;6.650;2022-12-29T09:54:56;45488.16;;;-141.29;76.40
22025;BME280;11176;51.448;6.650;2022-12-29T10:00:18;45498.16;;;-141.29;75.85
22025;BME280;11176;51.448;6.650;2022-12-29T10:03:18;45510.16;;;-141.29;76.24
22025;BME280;11176;51.448;6.650;2022-12-29T10:08:44;45504.16;;;-141.29;75.43
22025;BME280;11176;51.448;6.650;2022-12-29T10:14:24;45502.16;;;-141.29;75.39
22025;BME280;11176;51.448;6.650;2022-12-29T10:17:14;45500.16;;;-141.29;74.54
22025;BME280;11176;51.448;6.650;2022-12-29T10:24:55;45474.16;;;-141.29;74.45
22025;BME280;11176;51.448;6.650;2022-12-29T10:27:30;45492.16;;;-141.29;75.23
22025;BME280;11176;51.448;6.650;2022-12-29T10:29:58;45496.16;;;-141.29;74.82
22025;BME280;11176;51.448;6.650;2022-12-29T10:35:23;45484.16;;;-141.29;74.89
22025;BME280;11176;51.448;6.650;2022-12-29T10:43:22;45482.16;;;-141.29;73.46
22025;BME280;11176;51.448;6.650;2022-12-29T10:45:52;45486.16;;;-141.29;73.75
22025;BME280;11176;51.448;6.650;2022-12-29T10:48:24;45516.13;;;-141.29;74.20
22025;BME280;11176;51.448;6.650;2022-12-29T10:50:59;45494.16;;;-141.29;74.25
22025;BME280;11176;51.448;6.650;2022-12-29T10:53:36;45502.16;;;-141.29;73.61
22025;BME280;11176;51.448;6.650;2022-12-29T10:56:13;45490.16;;;-141.29;73.20
22025;BME280;11176;51.448;6.650;2022-12-29T10:58:46;45494.16;;;-141.29;73.32
22025;BME280;11176;51.448;6.650;2022-12-29T11:01:16;45502.16;;;-141.29;73.30
22025;BME280;11176;51.448;6.650;2022-12-29T11:06:37;45474.16;;;-141.29;73.07
22025;BME280;11176;51.448;6.650;2022-12-29T11:09:14;45490.16;;;-141.29;73.04
22025;BME280;11176;51.448;6.650;2022-12-29T11:11:42;45506.16;;;-141.29;73.46
22025;BME280;11176;51.448;6.650;2022-12-29T11:14:17;45482.16;;;-141.29;73.49
22025;BME280;11176;51.448;6.650;2022-12-29T11:16:44;45488.16;;;-141.29;73.27
22025;BME280;11176;51.448;6.650;2022-12-29T11:19:24;45494.16;;;-141.29;72.72
22025;BME280;11176;51.448;6.650;2022-12-29T11:21:51;45488.16;;;-141.29;74.04
22025;BME280;11176;51.448;6.650;2022-12-29T11:24:27;45486.16;;;-141.29;71.98
22025;BME280;11176;51.448;6.650;2022-12-29T11:26:55;45480.16;;;-141.29;71.74
22025;BME280;11176;51.448;6.650;2022-12-29T11:29:39;45486.16;;;-141.29;71.23
22025;BME280;11176;51.448;6.650;2022-12-29T11:32:13;45482.16;;;-141.29;71.66
22025;BME280;11176;51.448;6.650;2022-12-29T11:34:49;45486.16;;;-141.29;71.09
22025;BME280;11176;51.448;6.650;2022-12-29T11:37:27;45484.16;;;-141.29;70.84
22025;BME280;11176;51.448;6.650;2022-12-29T11:40:02;45486.16;;;-141.29;70.34
22025;BME280;11176;51.448;6.650;2022-12-29T11:42:37;45478.16;;;-141.29;70.97
22025;BME280;11176;51.448;6.650;2022-12-29T11:45:46;45480.16;;;-141.29;71.59
22025;BME280;11176;51.448;6.650;2022-12-29T11:47:59;45482.16;;;-141.29;71.43
22025;BME280;11176;51.448;6.650;2022-12-29T11:50:29;45458.19;;;-141.29;70.33
22025;BME280;11176;51.448;6.650;2022-12-29T11:52:59;45502.16;;;-141.29;71.01
22025;BME280;11176;51.448;6.650;2022-12-29T11:55:27;45482.16;;;-141.29;69.18
22025;BME280;11176;51.448;6.650;2022-12-29T11:57:55;45496.16;;;-141.29;69.75
22025;BME280;11176;51.448;6.650;2022-12-29T12:00:24;45466.19;;;-141.29;68.84
22025;BME280;11176;51.448;6.650;2022-12-29T12:03:00;45474.16;;;-141.29;69.56
22025;BME280;11176;51.448;6.650;2022-12-29T12:05:41;45474.16;;;-141.29;69.49
22025;BME280;11176;51.448;6.650;2022-12-29T12:08:36;45474.16;;;-141.29;68.44
22025;BME280;11176;51.448;6.650;2022-12-29T12:11:12;45478.16;;;-141.29;68.57
22025;BME280;11176;51.448;6.650;2022-12-29T12:16:24;45482.16;;;-141.29;69.98
22025;BME280;11176;51.448;6.650;2022-12-29T12:19:15;45466.19;;;-141.29;69.80
22025;BME280;11176;51.448;6.650;2022-12-29T12:21:54;45454.19;;;-141.29;69.79
22025;BME280;11176;51.448;6.650;2022-12-29T12:24:34;45478.16;;;-141.29;70.88
22025;BME280;11176;51.448;6.650;2022-12-29T12:29:59;45490.16;;;-141.29;70.58
22025;BME280;11176;51.448;6.650;2022-12-29T12:35:32;45484.16;;;-141.29;70.93
22025;BME280;11176;51.448;6.650;2022-12-29T12:38:06;45494.16;;;-141.29;70.73
22025;BME280;11176;51.448;6.650;2022-12-29T12:41:02;45474.16;;;-141.29;70.97
22025;BME280;11176;51.448;6.650;2022-12-29T12:43:37;45486.16;;;-141.29;71.09
22025;BME280;11176;51.448;6.650;2022-12-29T12:46:31;45464.19;;;-141.29;70.92
22025;BME280;11176;51.448;6.650;2022-12-29T12:57:55;45478.16;;;-141.29;71.76
22025;BME280;11176;51.448;6.650;2022-12-29T13:00:27;45490.16;;;-141.29;71.73
22025;BME280;11176;51.448;6.650;2022-12-29T13:03:39;45478.16;;;-141.29;71.98
22025;BME280;11176;51.448;6.650;2022-12-29T13:11:28;45478.16;;;-141.29;72.22
22025;BME280;11176;51.448;6.650;2022-12-29T13:16:54;45498.16;;;-141.29;72.97
22025;BME280;11176;51.448;6.650;2022-12-29T13:22:49;45480.16;;;-141.29;72.61
22025;BME280;11176;51.448;6.650;2022-12-29T13:28:06;45482.16;;;-141.29;72.92
22025;BME280;11176;51.448;6.650;2022-12-29T13:30:41;45486.16;;;-141.29;72.94
22025;BME280;11176;51.448;6.650;2022-12-29T13:33:21;45490.16;;;-141.29;72.84
22025;BME280;11176;51.448;6.650;2022-12-29T13:36:01;45502.16;;;-141.29;72.67
22025;BME280;11176;51.448;6.650;2022-12-29T13:38:35;45490.16;;;-141.29;72.54
22025;BME280;11176;51.448;6.650;2022-12-29T13:41:09;45470.19;;;-141.29;72.98
22025;BME280;11176;51.448;6.650;2022-12-29T13:43:40;45490.16;;;-141.29;73.04
22025;BME280;11176;51.448;6.650;2022-12-29T13:46:22;45474.16;;;-141.29;73.38
22025;BME280;11176;51.448;6.650;2022-12-29T13:48:53;45488.16;;;-141.29;74.05
22025;BME280;11176;51.448;6.650;2022-12-29T13:51:23;45490.16;;;-141.29;74.40
22025;BME280;11176;51.448;6.650;2022-12-29T13:57:09;45490.16;;;-141.29;76.75
22025;BME280;11176;51.448;6.650;2022-12-29T13:59:42;45478.16;;;-141.29;78.20
22025;BME280;11176;51.448;6.650;2022-12-29T14:02:21;45486.16;;;-141.29;77.69
22025;BME280;11176;51.448;6.650;2022-12-29T14:05:43;45486.16;;;-141.29;79.04
22025;BME280;11176;51.448;6.650;2022-12-29T14:07:44;45484.16;;;-141.29;80.75
22025;BME280;11176;51.448;6.650;2022-12-29T14:10:38;45482.16;;;-141.29;81.16
22025;BME280;11176;51.448;6.650;2022-12-29T14:13:14;45476.16;;;-141.29;80.19
22025;BME280;11176;51.448;6.650;2022-12-29T14:15:45;45516.13;;;-141.29;79.48
22025;BME280;11176;51.448;6.650;2022-12-29T14:18:18;45500.16;;;-141.29;79.62
22025;BME280;11176;51.448;6.650;2022-12-29T14:20:53;45486.16;;;-141.29;78.48
22025;BME280;11176;51.448;6.650;2022-12-29T14:23:41;45494.16;;;-141.29;79.17
22025;BME280;11176;51.448;6.650;2022-12-29T14:26:35;45498.16;;;-141.29;78.00
22025;BME280;11176;51.448;6.650;2022-12-29T14:31:55;45506.16;;;-141.29;77.00
22025;BME280;11176;51.448;6.650;2022-12-29T14:39:34;45490.16;;;-141.29;75.89
22025;BME280;11176;51.448;6.650;2022-12-29T14:44:32;45490.16;;;-141.29;75.94
22025;BME280;11176;51.448;6.650;2022-12-29T14:47:04;45518.13;;;-141.29;75.81
22025;BME280;11176;51.448;6.650;2022-12-29T14:49:40;45506.16;;;-141.29;75.49
22025;BME280;11176;51.448;6.650;2022-12-29T14:52:25;45486.16;;;-141.29;75.06